Finly, Indiana
Current Conditions -  °F | °C
As of 7:17 PM on Thursday 27 Nov 2014 (Local Time) from KGEZ Reporting Station
Light Snow Light Snow  
Wind Chill: 19°   Ceiling: 3400
Heat Index: 28°   Visibility: 7mi
Dew Point: 22°   Wind: 10mph
Humidity: 78%   Direction: 300°WNW
Pressure: 30.39"   Gusts: NA
Location:  39.71°N, 85.82°W
Report Text: KGEZ 280017Z AUTO 30009KT 7SM -SN FEW020 SCT025 OVC034 M02/M06 A3039 RMK AO2 P0000 T10221056
Loading
Personal Weather Stations






























Interactive Weather Map New forecast layout! Learn more

10-Day Weather Forecast

Advertisements
Track Severe Weather on mobile